Apalachicola, FL

12:05 AM EDT on September 20, 2014 (GMT -0400)
Apalachicola Municipal | Change Station
CLOSE
Current Station
Airport
Location: Apalachicola,
Elevation: 20 ft
Nearby Weather Stations

Elev 20 ft 29.73 °N, 85.03 °W | Updated 12 minutes ago

Clear
Clear
74 °F
Feels Like 74 °F
N
6
Wind Variable Wind from ENE

Today
High -- | Low -- °F
--% Chance of Precip.
Yesterday
High -- | Low -- °F
Precip. -- in
7:27 AM 7:39 PM
Waning Crescent, 15% visible
Pressure 29.98 in
Visibility 10.0 miles
Clouds Clear
Dew Point 67 °F
Humidity 79%
Rainfall 0.01 in
Snow Depth Not available.
UV 0 out of 12
Pollen 8.30 out of 12
Air Quality Not available.
Flu Activity Not available.
METAR KAAF 200353Z AUTO 06005KT 10SM CLR 23/19 A2998 RMK AO2 SLP152 T02330194 TSNO

More Conditions Fewer Conditions

Pressure 29.98 in
Visibility 10.0 miles
Clouds Clear
Dew Point 67 °F
Humidity 79%
Rainfall 0.01 in
Snow Depth Not available.
UV 0 out of 12
Pollen 8.30 out of 12
Air Quality Not available.
Flu Activity Not available.
METAR KAAF 200353Z AUTO 06005KT 10SM CLR 23/19 A2998 RMK AO2 SLP152 T02330194 TSNO

More Conditions Fewer Conditions

10-Day Weather Forecast

Almanac

Astronomy

Sep. 20, 2014 Rise Set
Actual Time 7:27 AM EDT 7:39 PM EDT
Civil Twilight 7:03 AM EDT 8:02 PM EDT
Nautical Twilight 6:35 AM EDT 8:30 PM EDT
Astronomical Twilight 6:07 AM EDT 8:58 PM EDT
Moon 4:17 AM EDT 5:31 PM EDT
Length of Visible Light 12h 59m
Length of Day
12h 11m
Tomorrow will be 1m 46s shorter.
Waning Crescent, 15% of the Moon is Illuminated
Today
Waning Crescent
Sep 24
New
Oct 1
First Quarter
Oct 8
Full
Oct 15
Last Quarter

Yesterday's Extremes

State Highs State Lows

Community

WunderPhotos

Upload Photos

1,754,777 photos uploaded!

WunderBlogs® & News

Nearby

Snow Depth

Station Depth Elevation
No new snow has been reported.

Earthquake Activity

City Distance Mag. Time & Date
No recent earthquake activity has been reported nearby.
Minimum magnitude displayed is 2.5.

Coastal Water Temperatures

Place Temperature
Panama City, FL 84.9 °F
Panama City Beach, FL 84.9 °F
Apalachicola, FL 82.9 °F

Nearby Weather Stations